sensor_id;sensor_type;location;lat;lon;timestamp;P1;durP1;ratioP1;P2;durP2;ratioP2
12760;SDS011;6444;49.742;6.114;2023-07-31T00:01:31;3.70;;;2.05;;
12760;SDS011;6444;49.742;6.114;2023-07-31T00:03:58;3.42;;;2.30;;
12760;SDS011;6444;49.742;6.114;2023-07-31T00:06:24;4.72;;;2.30;;
12760;SDS011;6444;49.742;6.114;2023-07-31T00:08:51;6.10;;;2.75;;
12760;SDS011;6444;49.742;6.114;2023-07-31T00:11:17;6.25;;;2.92;;
12760;SDS011;6444;49.742;6.114;2023-07-31T00:13:45;3.83;;;2.20;;
12760;SDS011;6444;49.742;6.114;2023-07-31T00:16:11;3.17;;;2.40;;
12760;SDS011;6444;49.742;6.114;2023-07-31T00:18:38;4.40;;;2.42;;
12760;SDS011;6444;49.742;6.114;2023-07-31T00:21:05;4.00;;;2.37;;
12760;SDS011;6444;49.742;6.114;2023-07-31T00:23:31;4.57;;;2.17;;
12760;SDS011;6444;49.742;6.114;2023-07-31T00:25:58;5.03;;;2.50;;
12760;SDS011;6444;49.742;6.114;2023-07-31T00:28:25;4.35;;;2.22;;
12760;SDS011;6444;49.742;6.114;2023-07-31T00:30:51;5.30;;;2.60;;
12760;SDS011;6444;49.742;6.114;2023-07-31T00:33:18;4.37;;;2.33;;
12760;SDS011;6444;49.742;6.114;2023-07-31T00:35:45;4.12;;;2.42;;
12760;SDS011;6444;49.742;6.114;2023-07-31T00:38:11;4.72;;;2.10;;
12760;SDS011;6444;49.742;6.114;2023-07-31T00:40:38;5.70;;;3.17;;
12760;SDS011;6444;49.742;6.114;2023-07-31T00:43:04;4.10;;;2.67;;
12760;SDS011;6444;49.742;6.114;2023-07-31T00:45:31;4.28;;;2.60;;
12760;SDS011;6444;49.742;6.114;2023-07-31T00:47:58;5.32;;;2.35;;
12760;SDS011;6444;49.742;6.114;2023-07-31T00:50:24;4.65;;;2.50;;
12760;SDS011;6444;49.742;6.114;2023-07-31T00:52:51;3.37;;;2.50;;
12760;SDS011;6444;49.742;6.114;2023-07-31T00:55:18;3.70;;;2.53;;
12760;SDS011;6444;49.742;6.114;2023-07-31T00:57:45;3.62;;;2.20;;
12760;SDS011;6444;49.742;6.114;2023-07-31T01:00:11;5.03;;;2.47;;
12760;SDS011;6444;49.742;6.114;2023-07-31T01:02:38;4.03;;;2.58;;
12760;SDS011;6444;49.742;6.114;2023-07-31T01:05:04;3.80;;;2.80;;
12760;SDS011;6444;49.742;6.114;2023-07-31T01:07:39;5.15;;;2.47;;
12760;SDS011;6444;49.742;6.114;2023-07-31T01:10:20;4.70;;;2.58;;
12760;SDS011;6444;49.742;6.114;2023-07-31T01:12:46;4.82;;;2.50;;
12760;SDS011;6444;49.742;6.114;2023-07-31T01:15:13;5.65;;;2.45;;
12760;SDS011;6444;49.742;6.114;2023-07-31T01:17:41;3.90;;;2.42;;
12760;SDS011;6444;49.742;6.114;2023-07-31T01:20:10;4.28;;;2.50;;
12760;SDS011;6444;49.742;6.114;2023-07-31T01:22:41;5.80;;;2.75;;
12760;SDS011;6444;49.742;6.114;2023-07-31T01:25:10;6.30;;;2.75;;
12760;SDS011;6444;49.742;6.114;2023-07-31T01:27:44;5.70;;;2.42;;
12760;SDS011;6444;49.742;6.114;2023-07-31T01:30:18;10.18;;;2.72;;
12760;SDS011;6444;49.742;6.114;2023-07-31T01:32:44;6.10;;;2.42;;
12760;SDS011;6444;49.742;6.114;2023-07-31T01:35:10;6.07;;;2.62;;
12760;SDS011;6444;49.742;6.114;2023-07-31T01:37:37;7.28;;;2.62;;
12760;SDS011;6444;49.742;6.114;2023-07-31T01:40:05;5.03;;;2.83;;
12760;SDS011;6444;49.742;6.114;2023-07-31T01:42:30;5.40;;;2.75;;
12760;SDS011;6444;49.742;6.114;2023-07-31T01:44:57;4.77;;;2.63;;
12760;SDS011;6444;49.742;6.114;2023-07-31T01:47:24;5.20;;;2.45;;
12760;SDS011;6444;49.742;6.114;2023-07-31T01:49:50;5.22;;;2.60;;
12760;SDS011;6444;49.742;6.114;2023-07-31T01:52:17;5.30;;;2.60;;
12760;SDS011;6444;49.742;6.114;2023-07-31T01:54:43;5.18;;;2.47;;
12760;SDS011;6444;49.742;6.114;2023-07-31T01:57:11;3.97;;;2.30;;
12760;SDS011;6444;49.742;6.114;2023-07-31T01:59:37;3.92;;;2.17;;
12760;SDS011;6444;49.742;6.114;2023-07-31T02:02:04;5.82;;;2.35;;
12760;SDS011;6444;49.742;6.114;2023-07-31T02:04:31;5.65;;;2.85;;
12760;SDS011;6444;49.742;6.114;2023-07-31T02:06:57;6.07;;;2.78;;
12760;SDS011;6444;49.742;6.114;2023-07-31T02:09:25;7.05;;;2.80;;
12760;SDS011;6444;49.742;6.114;2023-07-31T02:11:51;5.87;;;2.87;;
12760;SDS011;6444;49.742;6.114;2023-07-31T02:14:18;5.35;;;2.72;;
12760;SDS011;6444;49.742;6.114;2023-07-31T02:16:45;4.95;;;2.80;;
12760;SDS011;6444;49.742;6.114;2023-07-31T02:19:11;6.25;;;3.10;;
12760;SDS011;6444;49.742;6.114;2023-07-31T02:21:38;5.97;;;2.70;;
12760;SDS011;6444;49.742;6.114;2023-07-31T02:24:05;7.43;;;3.28;;
12760;SDS011;6444;49.742;6.114;2023-07-31T02:26:32;5.03;;;2.58;;
12760;SDS011;6444;49.742;6.114;2023-07-31T02:28:59;5.70;;;2.75;;
12760;SDS011;6444;49.742;6.114;2023-07-31T02:31:26;8.88;;;2.65;;
12760;SDS011;6444;49.742;6.114;2023-07-31T02:33:53;7.45;;;2.47;;
12760;SDS011;6444;49.742;6.114;2023-07-31T02:36:19;7.75;;;3.05;;
12760;SDS011;6444;49.742;6.114;2023-07-31T02:38:46;6.57;;;2.60;;
12760;SDS011;6444;49.742;6.114;2023-07-31T02:41:13;4.35;;;2.78;;
12760;SDS011;6444;49.742;6.114;2023-07-31T02:43:39;5.90;;;3.05;;
12760;SDS011;6444;49.742;6.114;2023-07-31T02:46:06;8.23;;;2.92;;
12760;SDS011;6444;49.742;6.114;2023-07-31T02:48:32;4.20;;;2.87;;
12760;SDS011;6444;49.742;6.114;2023-07-31T02:50:59;6.93;;;2.78;;
12760;SDS011;6444;49.742;6.114;2023-07-31T02:53:26;5.37;;;3.10;;
12760;SDS011;6444;49.742;6.114;2023-07-31T02:55:52;5.03;;;2.67;;
12760;SDS011;6444;49.742;6.114;2023-07-31T02:58:19;5.87;;;2.90;;
12760;SDS011;6444;49.742;6.114;2023-07-31T03:00:46;8.18;;;3.50;;
12760;SDS011;6444;49.742;6.114;2023-07-31T03:03:13;6.28;;;3.10;;
12760;SDS011;6444;49.742;6.114;2023-07-31T03:05:40;4.53;;;2.47;;
12760;SDS011;6444;49.742;6.114;2023-07-31T03:08:06;5.62;;;3.12;;
12760;SDS011;6444;49.742;6.114;2023-07-31T03:10:34;5.85;;;2.65;;
12760;SDS011;6444;49.742;6.114;2023-07-31T03:13:00;6.45;;;2.80;;
12760;SDS011;6444;49.742;6.114;2023-07-31T03:15:27;6.87;;;2.80;;
12760;SDS011;6444;49.742;6.114;2023-07-31T03:17:53;6.47;;;2.70;;
12760;SDS011;6444;49.742;6.114;2023-07-31T03:20:20;6.72;;;2.95;;
12760;SDS011;6444;49.742;6.114;2023-07-31T03:22:47;7.40;;;3.10;;
12760;SDS011;6444;49.742;6.114;2023-07-31T03:25:13;6.90;;;2.83;;
12760;SDS011;6444;49.742;6.114;2023-07-31T03:27:40;8.32;;;3.35;;
12760;SDS011;6444;49.742;6.114;2023-07-31T03:30:07;9.80;;;3.80;;
12760;SDS011;6444;49.742;6.114;2023-07-31T03:32:33;4.85;;;3.22;;
12760;SDS011;6444;49.742;6.114;2023-07-31T03:35:00;8.60;;;3.60;;
12760;SDS011;6444;49.742;6.114;2023-07-31T03:37:27;7.25;;;3.78;;
12760;SDS011;6444;49.742;6.114;2023-07-31T03:39:53;7.78;;;3.00;;
12760;SDS011;6444;49.742;6.114;2023-07-31T03:42:20;7.03;;;3.10;;
12760;SDS011;6444;49.742;6.114;2023-07-31T03:44:46;5.03;;;2.83;;
12760;SDS011;6444;49.742;6.114;2023-07-31T03:47:13;8.93;;;3.87;;
12760;SDS011;6444;49.742;6.114;2023-07-31T03:49:40;6.07;;;3.15;;
12760;SDS011;6444;49.742;6.114;2023-07-31T03:52:06;9.00;;;3.65;;
12760;SDS011;6444;49.742;6.114;2023-07-31T03:54:33;7.87;;;3.50;;
12760;SDS011;6444;49.742;6.114;2023-07-31T03:57:00;8.90;;;3.42;;
12760;SDS011;6444;49.742;6.114;2023-07-31T03:59:26;7.30;;;2.85;;
12760;SDS011;6444;49.742;6.114;2023-07-31T04:01:53;9.35;;;3.37;;
12760;SDS011;6444;49.742;6.114;2023-07-31T04:04:20;8.50;;;3.00;;
12760;SDS011;6444;49.742;6.114;2023-07-31T04:06:47;6.35;;;3.28;;
12760;SDS011;6444;49.742;6.114;2023-07-31T04:09:14;6.22;;;3.70;;
12760;SDS011;6444;49.742;6.114;2023-07-31T04:11:40;9.88;;;3.55;;
12760;SDS011;6444;49.742;6.114;2023-07-31T04:14:07;7.37;;;3.10;;
12760;SDS011;6444;49.742;6.114;2023-07-31T04:16:34;8.25;;;3.25;;
12760;SDS011;6444;49.742;6.114;2023-07-31T04:19:00;7.50;;;3.40;;
12760;SDS011;6444;49.742;6.114;2023-07-31T04:21:27;6.68;;;3.75;;
12760;SDS011;6444;49.742;6.114;2023-07-31T04:23:53;6.43;;;2.90;;
12760;SDS011;6444;49.742;6.114;2023-07-31T04:26:21;7.40;;;3.33;;
12760;SDS011;6444;49.742;6.114;2023-07-31T04:28:47;8.40;;;3.50;;
12760;SDS011;6444;49.742;6.114;2023-07-31T04:33:48;7.70;;;3.60;;
12760;SDS011;6444;49.742;6.114;2023-07-31T04:36:16;7.90;;;3.05;;
12760;SDS011;6444;49.742;6.114;2023-07-31T04:38:42;7.35;;;3.60;;
12760;SDS011;6444;49.742;6.114;2023-07-31T04:41:09;7.68;;;2.75;;
12760;SDS011;6444;49.742;6.114;2023-07-31T04:43:36;6.93;;;4.00;;
12760;SDS011;6444;49.742;6.114;2023-07-31T04:46:02;7.97;;;3.65;;
12760;SDS011;6444;49.742;6.114;2023-07-31T04:48:30;8.57;;;3.50;;
12760;SDS011;6444;49.742;6.114;2023-07-31T04:50:56;5.75;;;3.00;;
12760;SDS011;6444;49.742;6.114;2023-07-31T04:53:23;5.57;;;3.12;;
12760;SDS011;6444;49.742;6.114;2023-07-31T04:55:50;4.85;;;2.97;;
12760;SDS011;6444;49.742;6.114;2023-07-31T04:58:16;7.25;;;3.33;;
12760;SDS011;6444;49.742;6.114;2023-07-31T05:00:43;6.80;;;3.60;;
12760;SDS011;6444;49.742;6.114;2023-07-31T05:03:10;7.40;;;3.55;;
12760;SDS011;6444;49.742;6.114;2023-07-31T05:05:36;8.10;;;3.80;;
12760;SDS011;6444;49.742;6.114;2023-07-31T05:08:03;8.50;;;5.75;;
12760;SDS011;6444;49.742;6.114;2023-07-31T05:10:30;8.20;;;5.47;;
12760;SDS011;6444;49.742;6.114;2023-07-31T05:12:56;6.55;;;4.68;;
12760;SDS011;6444;49.742;6.114;2023-07-31T05:15:23;8.07;;;5.20;;
12760;SDS011;6444;49.742;6.114;2023-07-31T05:17:49;9.05;;;4.85;;
12760;SDS011;6444;49.742;6.114;2023-07-31T05:20:16;5.90;;;2.80;;
12760;SDS011;6444;49.742;6.114;2023-07-31T05:22:43;10.32;;;3.22;;
12760;SDS011;6444;49.742;6.114;2023-07-31T05:25:09;6.25;;;3.10;;
12760;SDS011;6444;49.742;6.114;2023-07-31T05:27:36;6.37;;;3.03;;
12760;SDS011;6444;49.742;6.114;2023-07-31T05:30:04;6.28;;;3.17;;
12760;SDS011;6444;49.742;6.114;2023-07-31T05:32:30;5.55;;;2.80;;
12760;SDS011;6444;49.742;6.114;2023-07-31T05:34:57;6.67;;;3.27;;
12760;SDS011;6444;49.742;6.114;2023-07-31T05:37:24;7.25;;;2.87;;
12760;SDS011;6444;49.742;6.114;2023-07-31T05:39:50;5.82;;;3.00;;
12760;SDS011;6444;49.742;6.114;2023-07-31T05:42:17;4.65;;;2.78;;
12760;SDS011;6444;49.742;6.114;2023-07-31T05:44:43;5.62;;;3.25;;
12760;SDS011;6444;49.742;6.114;2023-07-31T05:47:11;6.78;;;3.28;;
12760;SDS011;6444;49.742;6.114;2023-07-31T05:49:37;5.93;;;3.47;;
12760;SDS011;6444;49.742;6.114;2023-07-31T05:52:04;5.40;;;3.15;;
12760;SDS011;6444;49.742;6.114;2023-07-31T05:54:31;5.12;;;2.80;;
12760;SDS011;6444;49.742;6.114;2023-07-31T05:56:57;7.10;;;3.30;;
12760;SDS011;6444;49.742;6.114;2023-07-31T05:59:24;5.30;;;3.10;;
12760;SDS011;6444;49.742;6.114;2023-07-31T06:01:51;5.40;;;3.00;;
12760;SDS011;6444;49.742;6.114;2023-07-31T06:04:17;8.53;;;3.83;;
12760;SDS011;6444;49.742;6.114;2023-07-31T06:06:44;5.25;;;2.80;;
12760;SDS011;6444;49.742;6.114;2023-07-31T06:09:10;6.57;;;2.62;;
12760;SDS011;6444;49.742;6.114;2023-07-31T06:11:37;5.35;;;2.47;;
12760;SDS011;6444;49.742;6.114;2023-07-31T06:14:04;7.15;;;2.65;;
12760;SDS011;6444;49.742;6.114;2023-07-31T06:16:30;6.05;;;3.20;;
12760;SDS011;6444;49.742;6.114;2023-07-31T06:18:57;7.78;;;3.80;;
12760;SDS011;6444;49.742;6.114;2023-07-31T06:21:24;5.15;;;2.50;;
12760;SDS011;6444;49.742;6.114;2023-07-31T06:23:50;6.80;;;2.80;;
12760;SDS011;6444;49.742;6.114;2023-07-31T06:26:18;7.25;;;2.90;;
12760;SDS011;6444;49.742;6.114;2023-07-31T06:28:44;5.22;;;2.67;;
12760;SDS011;6444;49.742;6.114;2023-07-31T06:31:11;4.32;;;2.37;;
12760;SDS011;6444;49.742;6.114;2023-07-31T06:33:38;6.97;;;3.43;;
12760;SDS011;6444;49.742;6.114;2023-07-31T06:36:04;7.07;;;3.23;;
12760;SDS011;6444;49.742;6.114;2023-07-31T06:38:31;8.10;;;3.05;;
12760;SDS011;6444;49.742;6.114;2023-07-31T06:40:57;7.90;;;3.58;;
12760;SDS011;6444;49.742;6.114;2023-07-31T06:43:24;6.28;;;2.62;;
12760;SDS011;6444;49.742;6.114;2023-07-31T06:45:51;4.05;;;2.53;;
12760;SDS011;6444;49.742;6.114;2023-07-31T06:48:17;6.30;;;2.55;;
12760;SDS011;6444;49.742;6.114;2023-07-31T06:50:44;3.17;;;2.10;;
12760;SDS011;6444;49.742;6.114;2023-07-31T06:53:11;3.97;;;2.90;;
12760;SDS011;6444;49.742;6.114;2023-07-31T06:55:37;7.60;;;2.70;;
12760;SDS011;6444;49.742;6.114;2023-07-31T06:58:04;7.28;;;3.53;;
12760;SDS011;6444;49.742;6.114;2023-07-31T07:00:30;3.80;;;2.70;;
12760;SDS011;6444;49.742;6.114;2023-07-31T07:02:57;5.30;;;2.62;;
12760;SDS011;6444;49.742;6.114;2023-07-31T07:05:24;5.10;;;2.67;;
12760;SDS011;6444;49.742;6.114;2023-07-31T07:07:50;6.90;;;2.83;;
12760;SDS011;6444;49.742;6.114;2023-07-31T07:10:18;4.12;;;2.85;;
12760;SDS011;6444;49.742;6.114;2023-07-31T07:12:44;3.50;;;2.70;;
12760;SDS011;6444;49.742;6.114;2023-07-31T07:15:11;5.68;;;2.92;;
12760;SDS011;6444;49.742;6.114;2023-07-31T07:17:38;4.53;;;2.37;;
12760;SDS011;6444;49.742;6.114;2023-07-31T07:20:04;8.35;;;2.70;;
12760;SDS011;6444;49.742;6.114;2023-07-31T07:22:31;7.50;;;2.58;;
12760;SDS011;6444;49.742;6.114;2023-07-31T07:24:58;6.75;;;2.70;;
12760;SDS011;6444;49.742;6.114;2023-07-31T07:27:24;7.05;;;3.17;;
12760;SDS011;6444;49.742;6.114;2023-07-31T07:29:51;4.28;;;2.67;;
12760;SDS011;6444;49.742;6.114;2023-07-31T07:32:21;4.37;;;2.80;;
12760;SDS011;6444;49.742;6.114;2023-07-31T07:34:48;4.45;;;3.12;;
12760;SDS011;6444;49.742;6.114;2023-07-31T07:37:15;6.32;;;3.03;;
12760;SDS011;6444;49.742;6.114;2023-07-31T07:39:41;5.10;;;2.85;;
12760;SDS011;6444;49.742;6.114;2023-07-31T07:42:08;5.70;;;2.97;;
12760;SDS011;6444;49.742;6.114;2023-07-31T07:44:34;5.47;;;3.05;;
12760;SDS011;6444;49.742;6.114;2023-07-31T07:47:02;3.83;;;2.28;;
12760;SDS011;6444;49.742;6.114;2023-07-31T07:49:29;4.47;;;2.53;;
12760;SDS011;6444;49.742;6.114;2023-07-31T07:51:57;4.35;;;2.50;;
12760;SDS011;6444;49.742;6.114;2023-07-31T07:54:25;4.97;;;2.65;;
12760;SDS011;6444;49.742;6.114;2023-07-31T07:56:53;5.70;;;2.37;;
12760;SDS011;6444;49.742;6.114;2023-07-31T07:59:21;3.83;;;2.37;;
12760;SDS011;6444;49.742;6.114;2023-07-31T08:01:48;4.10;;;2.40;;
12760;SDS011;6444;49.742;6.114;2023-07-31T08:04:15;3.40;;;2.03;;
12760;SDS011;6444;49.742;6.114;2023-07-31T08:06:41;4.22;;;2.50;;
12760;SDS011;6444;49.742;6.114;2023-07-31T08:09:08;3.95;;;2.20;;
12760;SDS011;6444;49.742;6.114;2023-07-31T08:11:35;3.22;;;2.15;;
12760;SDS011;6444;49.742;6.114;2023-07-31T08:14:02;4.65;;;2.72;;
12760;SDS011;6444;49.742;6.114;2023-07-31T08:16:29;2.80;;;2.20;;
12760;SDS011;6444;49.742;6.114;2023-07-31T08:18:55;4.00;;;2.08;;
12760;SDS011;6444;49.742;6.114;2023-07-31T08:21:23;4.90;;;2.15;;
12760;SDS011;6444;49.742;6.114;2023-07-31T08:23:49;3.47;;;2.15;;
12760;SDS011;6444;49.742;6.114;2023-07-31T08:26:16;4.20;;;2.20;;
12760;SDS011;6444;49.742;6.114;2023-07-31T08:28:42;5.25;;;2.12;;
12760;SDS011;6444;49.742;6.114;2023-07-31T08:31:12;5.25;;;2.47;;
12760;SDS011;6444;49.742;6.114;2023-07-31T08:33:39;7.28;;;4.18;;
12760;SDS011;6444;49.742;6.114;2023-07-31T08:36:05;4.20;;;2.47;;
12760;SDS011;6444;49.742;6.114;2023-07-31T08:38:32;6.10;;;2.80;;
12760;SDS011;6444;49.742;6.114;2023-07-31T08:40:59;3.53;;;3.03;;
12760;SDS011;6444;49.742;6.114;2023-07-31T08:43:26;4.85;;;2.12;;
12760;SDS011;6444;49.742;6.114;2023-07-31T08:45:53;4.95;;;2.08;;
12760;SDS011;6444;49.742;6.114;2023-07-31T08:48:20;5.12;;;2.33;;
12760;SDS011;6444;49.742;6.114;2023-07-31T08:50:46;4.28;;;2.22;;
12760;SDS011;6444;49.742;6.114;2023-07-31T08:53:12;4.22;;;2.37;;
12760;SDS011;6444;49.742;6.114;2023-07-31T08:55:39;4.50;;;2.00;;
12760;SDS011;6444;49.742;6.114;2023-07-31T08:58:06;3.28;;;2.40;;
12760;SDS011;6444;49.742;6.114;2023-07-31T09:00:32;3.03;;;2.17;;
12760;SDS011;6444;49.742;6.114;2023-07-31T09:02:59;5.28;;;2.40;;
12760;SDS011;6444;49.742;6.114;2023-07-31T09:05:26;3.67;;;1.92;;
12760;SDS011;6444;49.742;6.114;2023-07-31T09:07:52;2.95;;;1.92;;
12760;SDS011;6444;49.742;6.114;2023-07-31T09:10:19;4.20;;;2.40;;
12760;SDS011;6444;49.742;6.114;2023-07-31T09:12:46;2.90;;;1.98;;
12760;SDS011;6444;49.742;6.114;2023-07-31T09:15:12;2.50;;;1.73;;
12760;SDS011;6444;49.742;6.114;2023-07-31T09:17:39;3.67;;;2.22;;
12760;SDS011;6444;49.742;6.114;2023-07-31T09:20:18;3.92;;;2.47;;
12760;SDS011;6444;49.742;6.114;2023-07-31T09:22:44;3.30;;;1.90;;
12760;SDS011;6444;49.742;6.114;2023-07-31T09:27:47;3.33;;;2.12;;
12760;SDS011;6444;49.742;6.114;2023-07-31T09:30:13;3.83;;;2.30;;
12760;SDS011;6444;49.742;6.114;2023-07-31T09:32:39;2.03;;;1.77;;
12760;SDS011;6444;49.742;6.114;2023-07-31T09:37:42;2.87;;;1.80;;
12760;SDS011;6444;49.742;6.114;2023-07-31T09:40:09;2.28;;;1.80;;
12760;SDS011;6444;49.742;6.114;2023-07-31T09:42:36;2.20;;;1.48;;
12760;SDS011;6444;49.742;6.114;2023-07-31T09:45:09;3.95;;;1.90;;
12760;SDS011;6444;49.742;6.114;2023-07-31T09:47:35;7.18;;;1.90;;
12760;SDS011;6444;49.742;6.114;2023-07-31T09:50:07;2.40;;;2.00;;
12760;SDS011;6444;49.742;6.114;2023-07-31T09:52:32;3.37;;;1.92;;
12760;SDS011;6444;49.742;6.114;2023-07-31T09:54:58;2.28;;;1.90;;
12760;SDS011;6444;49.742;6.114;2023-07-31T09:57:25;3.30;;;2.00;;
12760;SDS011;6444;49.742;6.114;2023-07-31T09:59:51;2.67;;;1.95;;
12760;SDS011;6444;49.742;6.114;2023-07-31T10:02:20;3.20;;;2.28;;
12760;SDS011;6444;49.742;6.114;2023-07-31T10:04:46;2.80;;;1.90;;
12760;SDS011;6444;49.742;6.114;2023-07-31T10:07:16;3.17;;;1.80;;
12760;SDS011;6444;49.742;6.114;2023-07-31T10:09:42;3.95;;;2.00;;
12760;SDS011;6444;49.742;6.114;2023-07-31T10:12:09;2.42;;;1.80;;
12760;SDS011;6444;49.742;6.114;2023-07-31T10:14:36;2.72;;;2.12;;
12760;SDS011;6444;49.742;6.114;2023-07-31T10:17:02;3.15;;;2.03;;
12760;SDS011;6444;49.742;6.114;2023-07-31T10:19:29;2.22;;;1.67;;
12760;SDS011;6444;49.742;6.114;2023-07-31T10:21:56;5.20;;;2.70;;
12760;SDS011;6444;49.742;6.114;2023-07-31T10:24:22;3.90;;;2.40;;
12760;SDS011;6444;49.742;6.114;2023-07-31T10:26:49;2.70;;;1.85;;
12760;SDS011;6444;49.742;6.114;2023-07-31T10:29:15;4.12;;;2.00;;
12760;SDS011;6444;49.742;6.114;2023-07-31T10:31:42;4.07;;;1.90;;
12760;SDS011;6444;49.742;6.114;2023-07-31T10:34:09;3.03;;;2.22;;
12760;SDS011;6444;49.742;6.114;2023-07-31T10:36:35;4.18;;;2.30;;
12760;SDS011;6444;49.742;6.114;2023-07-31T10:39:03;3.72;;;2.42;;
12760;SDS011;6444;49.742;6.114;2023-07-31T10:41:29;5.50;;;2.50;;
12760;SDS011;6444;49.742;6.114;2023-07-31T10:43:57;4.12;;;2.25;;
12760;SDS011;6444;49.742;6.114;2023-07-31T10:46:22;2.35;;;1.92;;
12760;SDS011;6444;49.742;6.114;2023-07-31T10:48:49;4.95;;;2.65;;
12760;SDS011;6444;49.742;6.114;2023-07-31T10:51:15;6.35;;;2.05;;
12760;SDS011;6444;49.742;6.114;2023-07-31T10:53:42;2.78;;;2.05;;
12760;SDS011;6444;49.742;6.114;2023-07-31T10:56:09;2.62;;;2.00;;
12760;SDS011;6444;49.742;6.114;2023-07-31T10:58:36;3.28;;;2.05;;
12760;SDS011;6444;49.742;6.114;2023-07-31T11:01:03;3.58;;;2.40;;
12760;SDS011;6444;49.742;6.114;2023-07-31T11:03:48;3.97;;;2.30;;
12760;SDS011;6444;49.742;6.114;2023-07-31T11:06:15;6.68;;;2.40;;
12760;SDS011;6444;49.742;6.114;2023-07-31T11:08:44;4.00;;;2.47;;
12760;SDS011;6444;49.742;6.114;2023-07-31T11:11:08;5.80;;;2.40;;
12760;SDS011;6444;49.742;6.114;2023-07-31T11:13:40;4.33;;;2.93;;
12760;SDS011;6444;49.742;6.114;2023-07-31T11:16:06;6.30;;;2.50;;
12760;SDS011;6444;49.742;6.114;2023-07-31T11:18:33;4.22;;;2.58;;
12760;SDS011;6444;49.742;6.114;2023-07-31T11:20:59;5.05;;;2.53;;
12760;SDS011;6444;49.742;6.114;2023-07-31T11:23:26;4.25;;;2.25;;
12760;SDS011;6444;49.742;6.114;2023-07-31T11:25:53;3.45;;;2.50;;
12760;SDS011;6444;49.742;6.114;2023-07-31T11:28:19;4.20;;;2.47;;
12760;SDS011;6444;49.742;6.114;2023-07-31T11:30:46;5.32;;;2.65;;
12760;SDS011;6444;49.742;6.114;2023-07-31T11:33:13;3.33;;;2.40;;
12760;SDS011;6444;49.742;6.114;2023-07-31T11:35:46;5.17;;;2.67;;
12760;SDS011;6444;49.742;6.114;2023-07-31T11:38:12;4.90;;;2.62;;
12760;SDS011;6444;49.742;6.114;2023-07-31T11:40:42;4.97;;;2.92;;
12760;SDS011;6444;49.742;6.114;2023-07-31T11:43:08;4.43;;;2.70;;
12760;SDS011;6444;49.742;6.114;2023-07-31T11:45:35;4.12;;;2.50;;
12760;SDS011;6444;49.742;6.114;2023-07-31T11:48:02;5.87;;;3.03;;
12760;SDS011;6444;49.742;6.114;2023-07-31T11:50:28;4.37;;;2.83;;
12760;SDS011;6444;49.742;6.114;2023-07-31T11:52:59;3.10;;;2.00;;
12760;SDS011;6444;49.742;6.114;2023-07-31T11:55:24;3.80;;;2.40;;
12760;SDS011;6444;49.742;6.114;2023-07-31T11:57:51;3.62;;;2.33;;
12760;SDS011;6444;49.742;6.114;2023-07-31T12:00:17;6.97;;;4.30;;
12760;SDS011;6444;49.742;6.114;2023-07-31T12:02:44;4.50;;;3.08;;
12760;SDS011;6444;49.742;6.114;2023-07-31T12:05:11;3.42;;;2.47;;
12760;SDS011;6444;49.742;6.114;2023-07-31T12:07:47;4.30;;;2.50;;
12760;SDS011;6444;49.742;6.114;2023-07-31T12:10:31;4.18;;;2.12;;
12760;SDS011;6444;49.742;6.114;2023-07-31T12:12:59;3.15;;;2.00;;
12760;SDS011;6444;49.742;6.114;2023-07-31T12:15:40;3.12;;;2.08;;
12760;SDS011;6444;49.742;6.114;2023-07-31T12:18:04;4.10;;;2.37;;
12760;SDS011;6444;49.742;6.114;2023-07-31T12:20:30;3.67;;;2.33;;
12760;SDS011;6444;49.742;6.114;2023-07-31T12:22:57;5.05;;;2.67;;
12760;SDS011;6444;49.742;6.114;2023-07-31T12:25:28;5.03;;;2.70;;
12760;SDS011;6444;49.742;6.114;2023-07-31T12:27:50;3.22;;;2.62;;
12760;SDS011;6444;49.742;6.114;2023-07-31T12:30:26;5.07;;;3.22;;
12760;SDS011;6444;49.742;6.114;2023-07-31T12:32:52;5.03;;;3.10;;
12760;SDS011;6444;49.742;6.114;2023-07-31T12:35:20;3.50;;;2.70;;
12760;SDS011;6444;49.742;6.114;2023-07-31T12:37:46;4.37;;;3.08;;
12760;SDS011;6444;49.742;6.114;2023-07-31T12:40:13;2.78;;;2.40;;
12760;SDS011;6444;49.742;6.114;2023-07-31T12:42:40;5.07;;;3.00;;
12760;SDS011;6444;49.742;6.114;2023-07-31T12:45:06;4.63;;;2.80;;
12760;SDS011;6444;49.742;6.114;2023-07-31T12:47:33;4.75;;;3.15;;
12760;SDS011;6444;49.742;6.114;2023-07-31T12:49:59;6.30;;;3.08;;
12760;SDS011;6444;49.742;6.114;2023-07-31T12:52:26;4.93;;;2.70;;
12760;SDS011;6444;49.742;6.114;2023-07-31T12:54:53;5.40;;;3.20;;
12760;SDS011;6444;49.742;6.114;2023-07-31T12:57:19;5.82;;;3.25;;
12760;SDS011;6444;49.742;6.114;2023-07-31T12:59:47;6.07;;;3.12;;
12760;SDS011;6444;49.742;6.114;2023-07-31T13:02:13;5.57;;;3.28;;
12760;SDS011;6444;49.742;6.114;2023-07-31T13:04:40;5.87;;;3.10;;
12760;SDS011;6444;49.742;6.114;2023-07-31T13:07:07;6.43;;;3.70;;
12760;SDS011;6444;49.742;6.114;2023-07-31T13:09:33;7.35;;;3.75;;
12760;SDS011;6444;49.742;6.114;2023-07-31T13:12:00;7.07;;;3.33;;
12760;SDS011;6444;49.742;6.114;2023-07-31T13:14:26;6.05;;;3.60;;
12760;SDS011;6444;49.742;6.114;2023-07-31T13:16:53;6.90;;;3.62;;
12760;SDS011;6444;49.742;6.114;2023-07-31T13:19:20;7.23;;;4.07;;
12760;SDS011;6444;49.742;6.114;2023-07-31T13:21:46;6.12;;;3.70;;
12760;SDS011;6444;49.742;6.114;2023-07-31T13:24:13;4.72;;;3.12;;
12760;SDS011;6444;49.742;6.114;2023-07-31T13:26:40;5.50;;;3.42;;
12760;SDS011;6444;49.742;6.114;2023-07-31T13:29:06;6.55;;;3.53;;
12760;SDS011;6444;49.742;6.114;2023-07-31T13:31:33;6.55;;;3.05;;
12760;SDS011;6444;49.742;6.114;2023-07-31T13:33:59;7.80;;;3.90;;
12760;SDS011;6444;49.742;6.114;2023-07-31T13:36:26;6.85;;;3.33;;
12760;SDS011;6444;49.742;6.114;2023-07-31T13:38:53;9.70;;;4.00;;
12760;SDS011;6444;49.742;6.114;2023-07-31T13:41:19;11.25;;;4.25;;
12760;SDS011;6444;49.742;6.114;2023-07-31T13:43:46;8.43;;;3.78;;
12760;SDS011;6444;49.742;6.114;2023-07-31T13:46:13;6.83;;;3.60;;
12760;SDS011;6444;49.742;6.114;2023-07-31T13:48:39;5.50;;;3.12;;
12760;SDS011;6444;49.742;6.114;2023-07-31T13:51:06;7.03;;;3.35;;
12760;SDS011;6444;49.742;6.114;2023-07-31T13:53:32;5.78;;;3.50;;
12760;SDS011;6444;49.742;6.114;2023-07-31T13:55:59;6.80;;;3.80;;
12760;SDS011;6444;49.742;6.114;2023-07-31T13:58:26;6.60;;;3.45;;
12760;SDS011;6444;49.742;6.114;2023-07-31T14:00:53;7.78;;;3.60;;
12760;SDS011;6444;49.742;6.114;2023-07-31T14:03:20;6.03;;;3.37;;
12760;SDS011;6444;49.742;6.114;2023-07-31T14:05:48;8.50;;;3.95;;
12760;SDS011;6444;49.742;6.114;2023-07-31T14:08:14;5.55;;;3.67;;
12760;SDS011;6444;49.742;6.114;2023-07-31T14:10:44;8.60;;;3.67;;
12760;SDS011;6444;49.742;6.114;2023-07-31T14:13:10;5.37;;;4.00;;
12760;SDS011;6444;49.742;6.114;2023-07-31T14:15:37;6.15;;;4.05;;
12760;SDS011;6444;49.742;6.114;2023-07-31T14:18:04;7.95;;;4.47;;
12760;SDS011;6444;49.742;6.114;2023-07-31T14:20:30;9.27;;;5.17;;
12760;SDS011;6444;49.742;6.114;2023-07-31T14:23:00;8.88;;;4.25;;
12760;SDS011;6444;49.742;6.114;2023-07-31T14:25:27;8.75;;;4.22;;
12760;SDS011;6444;49.742;6.114;2023-07-31T14:27:53;7.87;;;4.78;;
12760;SDS011;6444;49.742;6.114;2023-07-31T14:30:21;6.68;;;4.20;;
12760;SDS011;6444;49.742;6.114;2023-07-31T14:32:47;8.50;;;4.57;;
12760;SDS011;6444;49.742;6.114;2023-07-31T14:35:14;8.52;;;4.80;;
12760;SDS011;6444;49.742;6.114;2023-07-31T14:37:41;9.50;;;5.32;;
12760;SDS011;6444;49.742;6.114;2023-07-31T14:40:08;7.60;;;4.70;;
12760;SDS011;6444;49.742;6.114;2023-07-31T14:42:35;8.90;;;4.47;;
12760;SDS011;6444;49.742;6.114;2023-07-31T14:45:02;12.93;;;5.80;;
12760;SDS011;6444;49.742;6.114;2023-07-31T14:47:28;7.97;;;4.80;;
12760;SDS011;6444;49.742;6.114;2023-07-31T14:49:54;10.18;;;5.35;;
12760;SDS011;6444;49.742;6.114;2023-07-31T14:52:21;12.15;;;5.45;;
12760;SDS011;6444;49.742;6.114;2023-07-31T14:54:48;8.30;;;5.07;;
12760;SDS011;6444;49.742;6.114;2023-07-31T14:57:15;7.07;;;4.50;;
12760;SDS011;6444;49.742;6.114;2023-07-31T14:59:42;9.48;;;5.87;;
12760;SDS011;6444;49.742;6.114;2023-07-31T15:02:09;9.13;;;6.03;;
12760;SDS011;6444;49.742;6.114;2023-07-31T15:04:35;11.50;;;5.45;;
12760;SDS011;6444;49.742;6.114;2023-07-31T15:07:02;8.40;;;5.15;;